sensor_id;sensor_type;location;lat;lon;timestamp;temperature;humidity
52036;DHT22;38046;49.448;32.074;2023-05-10T00:00:23;13.00;53.10
52036;DHT22;38046;49.448;32.074;2023-05-10T00:02:49;13.00;53.00
52036;DHT22;38046;49.448;32.074;2023-05-10T00:05:15;13.00;53.10
52036;DHT22;38046;49.448;32.074;2023-05-10T00:07:41;13.10;53.00
52036;DHT22;38046;49.448;32.074;2023-05-10T00:10:10;13.10;53.00
52036;DHT22;38046;49.448;32.074;2023-05-10T00:12:35;13.00;52.70
52036;DHT22;38046;49.448;32.074;2023-05-10T00:15:01;13.10;52.80
52036;DHT22;38046;49.448;32.074;2023-05-10T00:17:28;13.00;52.90
52036;DHT22;38046;49.448;32.074;2023-05-10T00:19:54;13.00;52.80
52036;DHT22;38046;49.448;32.074;2023-05-10T00:22:20;13.10;52.80
52036;DHT22;38046;49.448;32.074;2023-05-10T00:24:45;13.00;52.60
52036;DHT22;38046;49.448;32.074;2023-05-10T00:27:11;13.00;52.50
52036;DHT22;38046;49.448;32.074;2023-05-10T00:29:37;13.00;52.60
52036;DHT22;38046;49.448;32.074;2023-05-10T00:32:02;13.00;52.60
52036;DHT22;38046;49.448;32.074;2023-05-10T00:34:28;13.00;52.50
52036;DHT22;38046;49.448;32.074;2023-05-10T00:36:54;13.00;52.30
52036;DHT22;38046;49.448;32.074;2023-05-10T00:39:20;13.00;52.10
52036;DHT22;38046;49.448;32.074;2023-05-10T00:41:45;13.00;52.40
52036;DHT22;38046;49.448;32.074;2023-05-10T00:44:11;13.00;52.50
52036;DHT22;38046;49.448;32.074;2023-05-10T00:46:37;13.00;52.60
52036;DHT22;38046;49.448;32.074;2023-05-10T00:49:02;13.00;52.40
52036;DHT22;38046;49.448;32.074;2023-05-10T00:51:28;13.00;52.20
52036;DHT22;38046;49.448;32.074;2023-05-10T00:53:54;13.00;52.40
52036;DHT22;38046;49.448;32.074;2023-05-10T00:56:21;13.00;52.60
52036;DHT22;38046;49.448;32.074;2023-05-10T00:58:48;13.00;52.90
52036;DHT22;38046;49.448;32.074;2023-05-10T01:01:14;13.00;52.70
52036;DHT22;38046;49.448;32.074;2023-05-10T01:03:40;13.00;52.60
52036;DHT22;38046;49.448;32.074;2023-05-10T01:06:06;13.00;52.60
52036;DHT22;38046;49.448;32.074;2023-05-10T01:08:32;13.00;52.40
52036;DHT22;38046;49.448;32.074;2023-05-10T01:10:58;13.00;52.60
52036;DHT22;38046;49.448;32.074;2023-05-10T01:13:34;13.00;53.50
52036;DHT22;38046;49.448;32.074;2023-05-10T01:16:01;13.00;52.50
52036;DHT22;38046;49.448;32.074;2023-05-10T01:18:29;13.00;52.50
52036;DHT22;38046;49.448;32.074;2023-05-10T01:21:15;13.00;52.60
52036;DHT22;38046;49.448;32.074;2023-05-10T01:24:09;13.00;52.80
52036;DHT22;38046;49.448;32.074;2023-05-10T01:32:08;13.10;52.70
52036;DHT22;38046;49.448;32.074;2023-05-10T01:37:24;13.10;52.70
52036;DHT22;38046;49.448;32.074;2023-05-10T01:39:58;13.10;52.70
52036;DHT22;38046;49.448;32.074;2023-05-10T01:42:31;13.10;52.70
52036;DHT22;38046;49.448;32.074;2023-05-10T01:47:37;13.10;52.50
52036;DHT22;38046;49.448;32.074;2023-05-10T01:50:09;13.20;52.70
52036;DHT22;38046;49.448;32.074;2023-05-10T01:52:42;13.20;53.10
52036;DHT22;38046;49.448;32.074;2023-05-10T01:55:13;13.20;52.70
52036;DHT22;38046;49.448;32.074;2023-05-10T01:57:43;13.20;52.50
52036;DHT22;38046;49.448;32.074;2023-05-10T02:00:10;13.20;52.20
52036;DHT22;38046;49.448;32.074;2023-05-10T02:02:40;13.20;52.30
52036;DHT22;38046;49.448;32.074;2023-05-10T02:05:08;13.20;52.30
52036;DHT22;38046;49.448;32.074;2023-05-10T02:07:36;13.20;52.20
52036;DHT22;38046;49.448;32.074;2023-05-10T02:10:07;13.20;52.40
52036;DHT22;38046;49.448;32.074;2023-05-10T02:12:39;13.20;52.40
52036;DHT22;38046;49.448;32.074;2023-05-10T02:15:07;13.20;52.30
52036;DHT22;38046;49.448;32.074;2023-05-10T02:17:35;13.20;52.30
52036;DHT22;38046;49.448;32.074;2023-05-10T02:20:05;13.20;52.70
52036;DHT22;38046;49.448;32.074;2023-05-10T02:22:31;13.20;52.70
52036;DHT22;38046;49.448;32.074;2023-05-10T02:24:59;13.10;52.60
52036;DHT22;38046;49.448;32.074;2023-05-10T02:27:27;13.10;52.60
52036;DHT22;38046;49.448;32.074;2023-05-10T02:29:54;13.10;52.90
52036;DHT22;38046;49.448;32.074;2023-05-10T02:32:21;13.10;53.00
52036;DHT22;38046;49.448;32.074;2023-05-10T02:34:49;13.10;52.70
52036;DHT22;38046;49.448;32.074;2023-05-10T02:37:19;13.10;53.00
52036;DHT22;38046;49.448;32.074;2023-05-10T02:39:47;13.10;52.90
52036;DHT22;38046;49.448;32.074;2023-05-10T02:42:24;13.10;53.20
52036;DHT22;38046;49.448;32.074;2023-05-10T02:44:53;13.00;53.60
52036;DHT22;38046;49.448;32.074;2023-05-10T02:47:20;13.00;53.80
52036;DHT22;38046;49.448;32.074;2023-05-10T02:49:46;13.00;53.60
52036;DHT22;38046;49.448;32.074;2023-05-10T02:52:16;12.90;53.30
52036;DHT22;38046;49.448;32.074;2023-05-10T02:54:45;12.80;53.20
52036;DHT22;38046;49.448;32.074;2023-05-10T02:57:16;12.70;53.30
52036;DHT22;38046;49.448;32.074;2023-05-10T02:59:45;12.70;53.50
52036;DHT22;38046;49.448;32.074;2023-05-10T03:02:14;12.60;53.70
52036;DHT22;38046;49.448;32.074;2023-05-10T03:04:40;12.60;53.90
52036;DHT22;38046;49.448;32.074;2023-05-10T03:07:05;12.50;53.90
52036;DHT22;38046;49.448;32.074;2023-05-10T03:09:32;12.50;53.80
52036;DHT22;38046;49.448;32.074;2023-05-10T03:15:03;12.50;54.40
52036;DHT22;38046;49.448;32.074;2023-05-10T03:20:50;12.50;54.20
52036;DHT22;38046;49.448;32.074;2023-05-10T03:25:53;12.40;53.90
52036;DHT22;38046;49.448;32.074;2023-05-10T03:28:21;12.40;53.80
52036;DHT22;38046;49.448;32.074;2023-05-10T03:30:47;12.30;54.00
52036;DHT22;38046;49.448;32.074;2023-05-10T03:33:13;12.30;54.00
52036;DHT22;38046;49.448;32.074;2023-05-10T03:35:39;12.30;54.40
52036;DHT22;38046;49.448;32.074;2023-05-10T03:38:05;12.30;54.30
52036;DHT22;38046;49.448;32.074;2023-05-10T03:40:30;12.20;54.70
52036;DHT22;38046;49.448;32.074;2023-05-10T03:42:58;12.30;54.80
52036;DHT22;38046;49.448;32.074;2023-05-10T03:45:24;12.30;54.90
52036;DHT22;38046;49.448;32.074;2023-05-10T03:47:50;12.30;55.10
52036;DHT22;38046;49.448;32.074;2023-05-10T03:50:16;12.40;55.40
52036;DHT22;38046;49.448;32.074;2023-05-10T03:52:42;12.60;55.60
52036;DHT22;38046;49.448;32.074;2023-05-10T03:55:08;12.80;55.50
52036;DHT22;38046;49.448;32.074;2023-05-10T03:57:34;12.90;55.30
52036;DHT22;38046;49.448;32.074;2023-05-10T04:00:00;13.10;55.00
52036;DHT22;38046;49.448;32.074;2023-05-10T04:02:26;13.20;54.60
52036;DHT22;38046;49.448;32.074;2023-05-10T04:04:52;13.20;54.30
52036;DHT22;38046;49.448;32.074;2023-05-10T04:07:17;13.30;54.00
52036;DHT22;38046;49.448;32.074;2023-05-10T04:09:43;13.30;53.90
52036;DHT22;38046;49.448;32.074;2023-05-10T04:12:09;13.40;53.90
52036;DHT22;38046;49.448;32.074;2023-05-10T04:14:35;13.50;53.80
52036;DHT22;38046;49.448;32.074;2023-05-10T04:17:00;13.70;53.70
52036;DHT22;38046;49.448;32.074;2023-05-10T04:19:32;14.30;54.00
52036;DHT22;38046;49.448;32.074;2023-05-10T04:21:58;15.10;53.40
52036;DHT22;38046;49.448;32.074;2023-05-10T04:24:24;15.70;52.50
52036;DHT22;38046;49.448;32.074;2023-05-10T04:26:50;16.30;51.80
52036;DHT22;38046;49.448;32.074;2023-05-10T04:29:16;16.70;51.50
52036;DHT22;38046;49.448;32.074;2023-05-10T04:31:42;17.40;51.20
52036;DHT22;38046;49.448;32.074;2023-05-10T04:34:07;18.30;50.70
52036;DHT22;38046;49.448;32.074;2023-05-10T04:36:33;19.20;49.80
52036;DHT22;38046;49.448;32.074;2023-05-10T04:39:01;20.00;48.80
52036;DHT22;38046;49.448;32.074;2023-05-10T04:41:28;20.70;48.00
52036;DHT22;38046;49.448;32.074;2023-05-10T04:43:54;21.40;47.50
52036;DHT22;38046;49.448;32.074;2023-05-10T04:46:19;22.10;46.60
52036;DHT22;38046;49.448;32.074;2023-05-10T04:48:45;22.60;45.60
52036;DHT22;38046;49.448;32.074;2023-05-10T04:51:11;22.90;44.90
52036;DHT22;38046;49.448;32.074;2023-05-10T04:53:36;23.10;44.10
52036;DHT22;38046;49.448;32.074;2023-05-10T04:56:02;23.10;43.60
52036;DHT22;38046;49.448;32.074;2023-05-10T04:58:28;23.20;43.30
52036;DHT22;38046;49.448;32.074;2023-05-10T05:00:53;23.30;43.30
52036;DHT22;38046;49.448;32.074;2023-05-10T05:03:19;23.40;43.20
52036;DHT22;38046;49.448;32.074;2023-05-10T05:05:45;23.60;42.70
52036;DHT22;38046;49.448;32.074;2023-05-10T05:08:10;23.60;42.00
52036;DHT22;38046;49.448;32.074;2023-05-10T05:10:36;23.40;41.60
52036;DHT22;38046;49.448;32.074;2023-05-10T05:13:02;23.00;41.70
52036;DHT22;38046;49.448;32.074;2023-05-10T05:15:27;22.70;42.10
52036;DHT22;38046;49.448;32.074;2023-05-10T05:17:53;22.60;42.20
52036;DHT22;38046;49.448;32.074;2023-05-10T05:20:19;22.50;42.00
52036;DHT22;38046;49.448;32.074;2023-05-10T05:22:44;22.40;41.80
52036;DHT22;38046;49.448;32.074;2023-05-10T05:25:10;22.40;41.60
52036;DHT22;38046;49.448;32.074;2023-05-10T05:27:37;22.30;41.40
52036;DHT22;38046;49.448;32.074;2023-05-10T05:30:03;22.10;41.40
52036;DHT22;38046;49.448;32.074;2023-05-10T05:32:29;21.70;41.70
52036;DHT22;38046;49.448;32.074;2023-05-10T05:34:56;21.30;41.90
52036;DHT22;38046;49.448;32.074;2023-05-10T05:37:21;20.70;42.30
52036;DHT22;38046;49.448;32.074;2023-05-10T05:39:48;20.20;42.80
52036;DHT22;38046;49.448;32.074;2023-05-10T05:42:14;19.80;43.30
52036;DHT22;38046;49.448;32.074;2023-05-10T05:44:41;19.40;43.70
52036;DHT22;38046;49.448;32.074;2023-05-10T05:47:07;19.10;44.10
52036;DHT22;38046;49.448;32.074;2023-05-10T05:49:32;18.80;44.30
52036;DHT22;38046;49.448;32.074;2023-05-10T05:51:59;18.50;44.50
52036;DHT22;38046;49.448;32.074;2023-05-10T05:54:25;18.30;44.60
52036;DHT22;38046;49.448;32.074;2023-05-10T05:56:54;18.10;44.80
52036;DHT22;38046;49.448;32.074;2023-05-10T05:59:20;17.90;45.10
52036;DHT22;38046;49.448;32.074;2023-05-10T06:01:46;17.70;45.40
52036;DHT22;38046;49.448;32.074;2023-05-10T06:04:12;17.60;45.40
52036;DHT22;38046;49.448;32.074;2023-05-10T06:06:38;17.60;45.40
52036;DHT22;38046;49.448;32.074;2023-05-10T06:09:03;17.60;45.60
52036;DHT22;38046;49.448;32.074;2023-05-10T06:11:29;17.50;45.40
52036;DHT22;38046;49.448;32.074;2023-05-10T06:13:57;17.50;45.50
52036;DHT22;38046;49.448;32.074;2023-05-10T06:16:23;17.40;45.80
52036;DHT22;38046;49.448;32.074;2023-05-10T06:18:49;17.40;46.00
52036;DHT22;38046;49.448;32.074;2023-05-10T06:21:15;17.40;46.70
52036;DHT22;38046;49.448;32.074;2023-05-10T06:23:41;17.30;46.80
52036;DHT22;38046;49.448;32.074;2023-05-10T06:26:07;17.30;46.90
52036;DHT22;38046;49.448;32.074;2023-05-10T06:28:33;17.30;46.90
52036;DHT22;38046;49.448;32.074;2023-05-10T06:30:59;17.20;46.90
52036;DHT22;38046;49.448;32.074;2023-05-10T06:33:25;17.10;47.00
52036;DHT22;38046;49.448;32.074;2023-05-10T06:35:51;17.10;47.10
52036;DHT22;38046;49.448;32.074;2023-05-10T06:38:17;17.00;47.10
52036;DHT22;38046;49.448;32.074;2023-05-10T06:40:42;17.00;47.10
52036;DHT22;38046;49.448;32.074;2023-05-10T06:43:09;17.00;47.30
52036;DHT22;38046;49.448;32.074;2023-05-10T06:45:34;16.90;47.20
52036;DHT22;38046;49.448;32.074;2023-05-10T06:48:00;16.90;47.40
52036;DHT22;38046;49.448;32.074;2023-05-10T06:50:26;16.90;47.70
52036;DHT22;38046;49.448;32.074;2023-05-10T06:52:52;16.90;47.80
52036;DHT22;38046;49.448;32.074;2023-05-10T06:55:17;16.90;48.10
52036;DHT22;38046;49.448;32.074;2023-05-10T06:57:43;16.90;48.40
52036;DHT22;38046;49.448;32.074;2023-05-10T07:00:09;16.90;48.70
52036;DHT22;38046;49.448;32.074;2023-05-10T07:02:35;16.80;48.50
52036;DHT22;38046;49.448;32.074;2023-05-10T07:05:01;16.80;48.30
52036;DHT22;38046;49.448;32.074;2023-05-10T07:07:27;16.80;48.60
52036;DHT22;38046;49.448;32.074;2023-05-10T07:09:53;16.80;48.80
52036;DHT22;38046;49.448;32.074;2023-05-10T07:12:19;16.80;49.20
52036;DHT22;38046;49.448;32.074;2023-05-10T07:14:45;16.80;49.40
52036;DHT22;38046;49.448;32.074;2023-05-10T07:17:11;16.80;49.50
52036;DHT22;38046;49.448;32.074;2023-05-10T07:19:36;16.90;49.50
52036;DHT22;38046;49.448;32.074;2023-05-10T07:22:02;16.90;49.50
52036;DHT22;38046;49.448;32.074;2023-05-10T07:24:28;16.90;49.60
52036;DHT22;38046;49.448;32.074;2023-05-10T07:26:53;16.90;49.60
52036;DHT22;38046;49.448;32.074;2023-05-10T07:29:19;16.90;49.10
52036;DHT22;38046;49.448;32.074;2023-05-10T07:31:45;17.00;48.40
52036;DHT22;38046;49.448;32.074;2023-05-10T07:34:11;17.10;48.20
52036;DHT22;38046;49.448;32.074;2023-05-10T07:36:36;17.10;47.80
52036;DHT22;38046;49.448;32.074;2023-05-10T07:39:02;17.20;47.90
52036;DHT22;38046;49.448;32.074;2023-05-10T07:41:28;17.20;47.50
52036;DHT22;38046;49.448;32.074;2023-05-10T07:43:54;17.20;47.30
52036;DHT22;38046;49.448;32.074;2023-05-10T07:46:20;17.20;47.20
52036;DHT22;38046;49.448;32.074;2023-05-10T07:48:46;17.30;47.20
52036;DHT22;38046;49.448;32.074;2023-05-10T07:51:11;17.30;46.90
52036;DHT22;38046;49.448;32.074;2023-05-10T07:53:37;17.40;46.70
52036;DHT22;38046;49.448;32.074;2023-05-10T07:56:21;17.40;46.30
52036;DHT22;38046;49.448;32.074;2023-05-10T07:58:47;17.40;45.80
52036;DHT22;38046;49.448;32.074;2023-05-10T08:01:13;17.40;45.70
52036;DHT22;38046;49.448;32.074;2023-05-10T08:03:38;17.40;45.90
52036;DHT22;38046;49.448;32.074;2023-05-10T08:06:04;17.50;45.90
52036;DHT22;38046;49.448;32.074;2023-05-10T08:08:30;17.50;45.70
52036;DHT22;38046;49.448;32.074;2023-05-10T08:10:55;17.60;45.20
52036;DHT22;38046;49.448;32.074;2023-05-10T08:13:21;17.60;44.90
52036;DHT22;38046;49.448;32.074;2023-05-10T08:15:47;17.70;44.60
52036;DHT22;38046;49.448;32.074;2023-05-10T08:18:13;17.70;44.40
52036;DHT22;38046;49.448;32.074;2023-05-10T08:20:38;17.70;44.30
52036;DHT22;38046;49.448;32.074;2023-05-10T08:23:04;17.80;44.10
52036;DHT22;38046;49.448;32.074;2023-05-10T08:25:31;17.80;43.90
52036;DHT22;38046;49.448;32.074;2023-05-10T08:27:56;17.80;43.80
52036;DHT22;38046;49.448;32.074;2023-05-10T08:30:22;17.80;43.60
52036;DHT22;38046;49.448;32.074;2023-05-10T08:32:48;17.80;43.70
52036;DHT22;38046;49.448;32.074;2023-05-10T08:35:13;17.80;43.50
52036;DHT22;38046;49.448;32.074;2023-05-10T08:37:39;17.80;43.50
52036;DHT22;38046;49.448;32.074;2023-05-10T08:40:05;17.80;43.50
52036;DHT22;38046;49.448;32.074;2023-05-10T08:42:32;17.80;43.50
52036;DHT22;38046;49.448;32.074;2023-05-10T08:45:00;17.80;43.30
52036;DHT22;38046;49.448;32.074;2023-05-10T08:47:27;17.90;43.40
52036;DHT22;38046;49.448;32.074;2023-05-10T08:49:54;17.90;43.20
52036;DHT22;38046;49.448;32.074;2023-05-10T08:52:21;17.90;43.40
52036;DHT22;38046;49.448;32.074;2023-05-10T08:54:48;17.90;43.30
52036;DHT22;38046;49.448;32.074;2023-05-10T08:57:14;17.90;43.30
52036;DHT22;38046;49.448;32.074;2023-05-10T08:59:40;17.80;43.40
52036;DHT22;38046;49.448;32.074;2023-05-10T09:02:06;17.80;43.30
52036;DHT22;38046;49.448;32.074;2023-05-10T09:04:35;17.80;43.20
52036;DHT22;38046;49.448;32.074;2023-05-10T09:07:00;17.70;43.20
52036;DHT22;38046;49.448;32.074;2023-05-10T09:09:27;17.70;43.00
52036;DHT22;38046;49.448;32.074;2023-05-10T09:11:53;17.70;43.20
52036;DHT22;38046;49.448;32.074;2023-05-10T09:14:19;17.60;42.90
52036;DHT22;38046;49.448;32.074;2023-05-10T09:16:46;17.60;42.70
52036;DHT22;38046;49.448;32.074;2023-05-10T09:19:12;17.60;42.60
52036;DHT22;38046;49.448;32.074;2023-05-10T09:21:38;17.70;42.50
52036;DHT22;38046;49.448;32.074;2023-05-10T09:24:07;17.70;42.40
52036;DHT22;38046;49.448;32.074;2023-05-10T09:26:34;17.80;42.50
52036;DHT22;38046;49.448;32.074;2023-05-10T09:29:01;17.90;42.20
52036;DHT22;38046;49.448;32.074;2023-05-10T09:31:46;17.90;42.10
52036;DHT22;38046;49.448;32.074;2023-05-10T09:34:17;17.90;41.90
52036;DHT22;38046;49.448;32.074;2023-05-10T09:36:56;17.90;41.70
52036;DHT22;38046;49.448;32.074;2023-05-10T09:39:36;17.90;41.80
52036;DHT22;38046;49.448;32.074;2023-05-10T09:42:07;18.00;42.20
52036;DHT22;38046;49.448;32.074;2023-05-10T09:44:34;18.00;42.40
52036;DHT22;38046;49.448;32.074;2023-05-10T09:47:03;18.00;42.00
52036;DHT22;38046;49.448;32.074;2023-05-10T09:49:29;18.00;41.70
52036;DHT22;38046;49.448;32.074;2023-05-10T09:52:03;18.00;41.60
52036;DHT22;38046;49.448;32.074;2023-05-10T09:54:30;18.10;41.40
52036;DHT22;38046;49.448;32.074;2023-05-10T09:56:56;18.10;41.50
52036;DHT22;38046;49.448;32.074;2023-05-10T09:59:21;18.10;41.70
52036;DHT22;38046;49.448;32.074;2023-05-10T10:01:50;18.10;41.50
52036;DHT22;38046;49.448;32.074;2023-05-10T10:04:16;18.10;41.30
52036;DHT22;38046;49.448;32.074;2023-05-10T10:06:42;18.00;41.30
52036;DHT22;38046;49.448;32.074;2023-05-10T10:09:08;18.00;41.20
52036;DHT22;38046;49.448;32.074;2023-05-10T10:11:36;18.00;41.00
52036;DHT22;38046;49.448;32.074;2023-05-10T10:14:01;17.90;41.00
52036;DHT22;38046;49.448;32.074;2023-05-10T10:16:29;17.90;40.80
52036;DHT22;38046;49.448;32.074;2023-05-10T10:18:55;17.70;40.60
52036;DHT22;38046;49.448;32.074;2023-05-10T10:21:22;17.60;40.60
52036;DHT22;38046;49.448;32.074;2023-05-10T10:23:48;17.60;40.40
52036;DHT22;38046;49.448;32.074;2023-05-10T10:26:15;17.50;40.20
52036;DHT22;38046;49.448;32.074;2023-05-10T10:29:05;17.50;40.10
52036;DHT22;38046;49.448;32.074;2023-05-10T10:31:41;17.40;40.00
52036;DHT22;38046;49.448;32.074;2023-05-10T10:34:11;17.40;40.00
52036;DHT22;38046;49.448;32.074;2023-05-10T10:36:46;17.50;39.90
52036;DHT22;38046;49.448;32.074;2023-05-10T10:39:15;17.60;39.90
52036;DHT22;38046;49.448;32.074;2023-05-10T10:41:55;17.60;39.80
52036;DHT22;38046;49.448;32.074;2023-05-10T10:44:25;17.70;39.20
52036;DHT22;38046;49.448;32.074;2023-05-10T10:47:03;17.70;39.20
52036;DHT22;38046;49.448;32.074;2023-05-10T10:49:32;17.70;39.00
52036;DHT22;38046;49.448;32.074;2023-05-10T10:52:25;17.70;39.00
52036;DHT22;38046;49.448;32.074;2023-05-10T10:55:14;17.80;39.10
52036;DHT22;38046;49.448;32.074;2023-05-10T10:57:50;17.70;39.10
52036;DHT22;38046;49.448;32.074;2023-05-10T11:00:30;17.80;38.90
52036;DHT22;38046;49.448;32.074;2023-05-10T11:03:00;17.80;39.00
52036;DHT22;38046;49.448;32.074;2023-05-10T11:06:01;17.80;39.00
52036;DHT22;38046;49.448;32.074;2023-05-10T11:08:29;17.80;38.80
52036;DHT22;38046;49.448;32.074;2023-05-10T11:18:36;17.80;39.40
52036;DHT22;38046;49.448;32.074;2023-05-10T11:21:03;17.80;39.50
52036;DHT22;38046;49.448;32.074;2023-05-10T11:23:54;17.80;39.80
52036;DHT22;38046;49.448;32.074;2023-05-10T11:26:35;17.80;39.50
52036;DHT22;38046;49.448;32.074;2023-05-10T11:29:01;17.80;39.50
52036;DHT22;38046;49.448;32.074;2023-05-10T11:31:28;17.80;39.40
52036;DHT22;38046;49.448;32.074;2023-05-10T11:33:56;17.80;39.90
52036;DHT22;38046;49.448;32.074;2023-05-10T11:36:28;17.80;39.00
52036;DHT22;38046;49.448;32.074;2023-05-10T11:38:55;17.70;39.20
52036;DHT22;38046;49.448;32.074;2023-05-10T11:41:22;17.70;39.30
52036;DHT22;38046;49.448;32.074;2023-05-10T11:43:50;17.60;39.60
52036;DHT22;38046;49.448;32.074;2023-05-10T11:46:19;17.60;39.60
52036;DHT22;38046;49.448;32.074;2023-05-10T11:48:46;17.60;39.50
52036;DHT22;38046;49.448;32.074;2023-05-10T11:51:12;17.60;39.60
52036;DHT22;38046;49.448;32.074;2023-05-10T11:53:38;17.50;39.40
52036;DHT22;38046;49.448;32.074;2023-05-10T11:56:10;17.50;39.40
52036;DHT22;38046;49.448;32.074;2023-05-10T11:58:37;17.50;39.90
52036;DHT22;38046;49.448;32.074;2023-05-10T12:01:04;17.50;40.10
52036;DHT22;38046;49.448;32.074;2023-05-10T12:03:31;17.40;40.30
52036;DHT22;38046;49.448;32.074;2023-05-10T12:05:57;17.50;40.20
52036;DHT22;38046;49.448;32.074;2023-05-10T12:08:25;17.50;39.90
52036;DHT22;38046;49.448;32.074;2023-05-10T12:10:52;17.50;40.00
52036;DHT22;38046;49.448;32.074;2023-05-10T12:13:20;17.50;40.00
52036;DHT22;38046;49.448;32.074;2023-05-10T12:15:46;17.40;39.70
52036;DHT22;38046;49.448;32.074;2023-05-10T12:18:13;17.40;39.60
52036;DHT22;38046;49.448;32.074;2023-05-10T12:20:39;17.30;39.80
52036;DHT22;38046;49.448;32.074;2023-05-10T12:23:05;17.30;40.00
52036;DHT22;38046;49.448;32.074;2023-05-10T12:25:36;17.30;40.00
52036;DHT22;38046;49.448;32.074;2023-05-10T12:28:07;17.30;39.90
52036;DHT22;38046;49.448;32.074;2023-05-10T12:30:35;17.30;40.00
52036;DHT22;38046;49.448;32.074;2023-05-10T12:33:12;17.30;40.10
52036;DHT22;38046;49.448;32.074;2023-05-10T12:35:45;17.30;40.00
52036;DHT22;38046;49.448;32.074;2023-05-10T12:38:27;17.30;39.90
52036;DHT22;38046;49.448;32.074;2023-05-10T12:40:56;17.40;40.00
52036;DHT22;38046;49.448;32.074;2023-05-10T12:43:22;17.30;39.80
52036;DHT22;38046;49.448;32.074;2023-05-10T12:45:47;17.40;40.10
52036;DHT22;38046;49.448;32.074;2023-05-10T12:48:15;17.40;40.10
52036;DHT22;38046;49.448;32.074;2023-05-10T12:50:40;17.40;39.90
52036;DHT22;38046;49.448;32.074;2023-05-10T12:53:06;17.40;39.70
52036;DHT22;38046;49.448;32.074;2023-05-10T12:55:32;17.50;39.70
52036;DHT22;38046;49.448;32.074;2023-05-10T12:57:58;17.40;39.60
52036;DHT22;38046;49.448;32.074;2023-05-10T13:00:27;17.30;39.50
52036;DHT22;38046;49.448;32.074;2023-05-10T13:02:52;17.30;39.50
52036;DHT22;38046;49.448;32.074;2023-05-10T13:05:18;17.30;39.70
52036;DHT22;38046;49.448;32.074;2023-05-10T13:07:44;17.20;40.00
52036;DHT22;38046;49.448;32.074;2023-05-10T13:10:10;17.20;40.20
52036;DHT22;38046;49.448;32.074;2023-05-10T13:12:36;17.20;40.20
52036;DHT22;38046;49.448;32.074;2023-05-10T13:15:03;17.20;40.40
52036;DHT22;38046;49.448;32.074;2023-05-10T13:17:29;17.20;40.60
52036;DHT22;38046;49.448;32.074;2023-05-10T13:19:54;17.20;40.70
52036;DHT22;38046;49.448;32.074;2023-05-10T13:22:20;17.10;40.60
52036;DHT22;38046;49.448;32.074;2023-05-10T13:24:46;17.20;40.60
52036;DHT22;38046;49.448;32.074;2023-05-10T13:27:11;17.20;40.40
52036;DHT22;38046;49.448;32.074;2023-05-10T13:29:37;17.10;40.20
52036;DHT22;38046;49.448;32.074;2023-05-10T13:32:03;17.10;40.30
52036;DHT22;38046;49.448;32.074;2023-05-10T13:34:28;17.10;40.10
52036;DHT22;38046;49.448;32.074;2023-05-10T13:36:54;17.10;39.70
52036;DHT22;38046;49.448;32.074;2023-05-10T13:39:21;17.10;39.90
52036;DHT22;38046;49.448;32.074;2023-05-10T13:41:47;17.10;40.10
52036;DHT22;38046;49.448;32.074;2023-05-10T13:44:13;17.10;40.20
52036;DHT22;38046;49.448;32.074;2023-05-10T13:46:40;17.00;39.80
52036;DHT22;38046;49.448;32.074;2023-05-10T13:49:06;17.00;40.10
52036;DHT22;38046;49.448;32.074;2023-05-10T13:51:33;17.00;39.50
52036;DHT22;38046;49.448;32.074;2023-05-10T13:53:59;17.00;39.40
52036;DHT22;38046;49.448;32.074;2023-05-10T13:56:24;17.00;39.40
52036;DHT22;38046;49.448;32.074;2023-05-10T13:58:50;17.00;39.30
52036;DHT22;38046;49.448;32.074;2023-05-10T14:01:16;17.00;39.20
52036;DHT22;38046;49.448;32.074;2023-05-10T14:03:42;17.00;39.30
52036;DHT22;38046;49.448;32.074;2023-05-10T14:06:08;16.90;39.20
52036;DHT22;38046;49.448;32.074;2023-05-10T14:08:35;16.90;39.10
52036;DHT22;38046;49.448;32.074;2023-05-10T14:11:00;16.90;39.10
52036;DHT22;38046;49.448;32.074;2023-05-10T14:13:26;16.90;39.10
52036;DHT22;38046;49.448;32.074;2023-05-10T14:15:53;16.90;38.80
52036;DHT22;38046;49.448;32.074;2023-05-10T14:18:19;16.90;38.90
52036;DHT22;38046;49.448;32.074;2023-05-10T14:20:44;16.90;39.00
52036;DHT22;38046;49.448;32.074;2023-05-10T14:23:10;16.90;39.10
52036;DHT22;38046;49.448;32.074;2023-05-10T14:25:36;17.00;39.00
52036;DHT22;38046;49.448;32.074;2023-05-10T14:28:03;16.90;38.90
52036;DHT22;38046;49.448;32.074;2023-05-10T14:30:29;16.90;39.20
52036;DHT22;38046;49.448;32.074;2023-05-10T14:32:55;16.90;39.50
52036;DHT22;38046;49.448;32.074;2023-05-10T14:35:20;16.90;39.50
52036;DHT22;38046;49.448;32.074;2023-05-10T14:37:46;16.90;39.30
52036;DHT22;38046;49.448;32.074;2023-05-10T14:40:12;16.90;39.50
52036;DHT22;38046;49.448;32.074;2023-05-10T14:42:38;16.90;39.80
52036;DHT22;38046;49.448;32.074;2023-05-10T14:45:04;16.90;39.80
52036;DHT22;38046;49.448;32.074;2023-05-10T14:47:30;16.80;39.70
52036;DHT22;38046;49.448;32.074;2023-05-10T14:49:56;16.80;39.70
52036;DHT22;38046;49.448;32.074;2023-05-10T14:52:21;16.80;40.00
52036;DHT22;38046;49.448;32.074;2023-05-10T14:54:47;16.80;39.80
52036;DHT22;38046;49.448;32.074;2023-05-10T14:57:13;16.70;40.30
52036;DHT22;38046;49.448;32.074;2023-05-10T14:59:38;16.70;40.30
52036;DHT22;38046;49.448;32.074;2023-05-10T15:02:04;16.70;40.80
52036;DHT22;38046;49.448;32.074;2023-05-10T15:04:32;16.60;41.10
52036;DHT22;38046;49.448;32.074;2023-05-10T15:06:57;16.50;41.10
52036;DHT22;38046;49.448;32.074;2023-05-10T15:09:24;16.50;41.10
52036;DHT22;38046;49.448;32.074;2023-05-10T15:11:50;16.50;41.10
52036;DHT22;38046;49.448;32.074;2023-05-10T15:14:16;16.40;41.00
52036;DHT22;38046;49.448;32.074;2023-05-10T15:16:42;16.40;41.50
52036;DHT22;38046;49.448;32.074;2023-05-10T15:19:07;16.40;41.70
52036;DHT22;38046;49.448;32.074;2023-05-10T15:21:33;16.40;41.80
52036;DHT22;38046;49.448;32.074;2023-05-10T15:24:05;16.40;41.80
52036;DHT22;38046;49.448;32.074;2023-05-10T15:26:31;16.40;41.80
52036;DHT22;38046;49.448;32.074;2023-05-10T15:28:57;16.40;41.90
52036;DHT22;38046;49.448;32.074;2023-05-10T15:31:22;16.40;41.70
52036;DHT22;38046;49.448;32.074;2023-05-10T15:33:48;16.30;41.50
52036;DHT22;38046;49.448;32.074;2023-05-10T15:36:14;16.40;41.40
52036;DHT22;38046;49.448;32.074;2023-05-10T15:38:39;16.40;41.70
52036;DHT22;38046;49.448;32.074;2023-05-10T15:41:05;16.40;41.90
52036;DHT22;38046;49.448;32.074;2023-05-10T15:43:30;16.30;41.60